Time;durP1;ratioP1;P1;durP2;ratioP2;P2;SDS_P1;SDS_P2;PMS_P1;PMS_P2;Temp;Humidity;BMP_temperature;BMP_pressure;BME280_temperature;BME280_humidity;BME280_pressure;Samples;Min_cycle;Max_cycle;Signal;HPM_P1;HPM_P2
2022/04/04 00:02:06;;;;;;;15.60;14.20;;;-1.10;99.90;;;;;;4991518;28;20978;-80
2022/04/04 00:04:34;;;;;;;16.97;15.47;;;-1.10;99.90;;;;;;4997671;28;20432;-78
2022/04/04 00:07:02;;;;;;;18.83;17.17;;;-1.10;99.90;;;;;;4990289;28;20437;-78
2022/04/04 00:09:29;;;;;;;17.70;16.20;;;-1.20;99.90;;;;;;4990561;28;20488;-78
2022/04/04 00:11:56;;;;;;;18.97;17.23;;;-1.30;99.90;;;;;;4986314;28;20448;-77
2022/04/04 00:14:24;;;;;;;19.67;17.87;;;-1.30;99.90;;;;;;4981927;28;20473;-79
2022/04/04 00:16:50;;;;;;;18.17;16.47;;;-1.30;99.90;;;;;;4986504;28;20438;-79
2022/04/04 00:19:17;;;;;;;19.10;17.40;;;-1.30;99.90;;;;;;4985203;28;20461;-78
2022/04/04 00:21:45;;;;;;;16.90;15.23;;;-1.30;99.90;;;;;;4981222;28;20516;-77
2022/04/04 00:24:12;;;;;;;16.07;14.53;;;-1.30;99.90;;;;;;5004151;28;20464;-81
2022/04/04 00:26:39;;;;;;;18.93;16.93;;;-1.30;99.90;;;;;;4986749;28;21043;-80
2022/04/04 00:29:06;;;;;;;19.57;17.67;;;-1.30;99.90;;;;;;4988414;28;20479;-79
2022/04/04 00:31:33;;;;;;;18.20;16.60;;;-1.30;99.90;;;;;;4985600;28;20448;-79
2022/04/04 00:34:00;;;;;;;17.93;16.37;;;-1.40;99.90;;;;;;4987251;28;20512;-79
2022/04/04 00:36:27;;;;;;;18.70;16.93;;;-1.50;99.90;;;;;;4990380;28;21004;-79
2022/04/04 00:38:55;;;;;;;18.80;17.10;;;-1.50;99.90;;;;;;4987741;28;20492;-78
2022/04/04 00:41:22;;;;;;;18.67;16.97;;;-1.50;99.90;;;;;;4987706;28;20452;-79
2022/04/04 00:43:52;;;;;;;19.33;17.53;;;-1.50;99.90;;;;;;5009161;23;20505;-79
2022/04/04 00:46:19;;;;;;;18.53;16.83;;;-1.50;99.90;;;;;;5001603;28;20432;-79
2022/04/04 00:48:46;;;;;;;18.77;16.63;;;-1.50;99.90;;;;;;5008255;28;20998;-77
2022/04/04 00:51:13;;;;;;;19.47;17.50;;;-1.60;99.90;;;;;;5008197;28;20431;-79
2022/04/04 00:53:40;;;;;;;18.97;16.97;;;-1.50;99.90;;;;;;5008181;28;20471;-78
2022/04/04 00:56:11;;;;;;;18.40;16.80;;;-1.50;99.90;;;;;;5008980;28;20435;-77
2022/04/04 00:58:39;;;;;;;18.07;16.50;;;-1.50;99.90;;;;;;4997335;28;20439;-77
2022/04/04 01:01:07;;;;;;;18.30;16.60;;;-1.50;99.90;;;;;;5002705;28;20524;-77
2022/04/04 01:03:34;;;;;;;17.73;16.13;;;-1.50;99.90;;;;;;5012572;28;20452;-78
2022/04/04 01:06:02;;;;;;;17.60;15.80;;;-1.60;99.90;;;;;;5004981;28;20862;-77
2022/04/04 01:08:29;;;;;;;18.03;16.30;;;-1.60;99.90;;;;;;5006317;28;20509;-78
2022/04/04 01:10:55;;;;;;;16.97;15.50;;;-1.60;99.90;;;;;;5001890;28;20452;-79
2022/04/04 01:13:24;;;;;;;17.33;15.83;;;-1.70;99.90;;;;;;4998251;28;20473;-78
2022/04/04 01:15:50;;;;;;;18.57;16.73;;;-1.70;99.90;;;;;;5002510;28;20428;-79
2022/04/04 01:18:17;;;;;;;17.53;16.03;;;-1.70;99.90;;;;;;5004938;28;20437;-79
2022/04/04 01:20:44;;;;;;;17.73;16.13;;;-1.80;99.90;;;;;;5006008;28;20964;-78
2022/04/04 01:23:13;;;;;;;18.33;16.73;;;-1.80;99.90;;;;;;5004737;28;20519;-80
2022/04/04 01:25:41;;;;;;;18.20;16.60;;;-1.80;99.90;;;;;;5006445;28;20618;-77
2022/04/04 01:28:08;;;;;;;16.57;15.17;;;-1.80;99.90;;;;;;5003675;28;20531;-78
2022/04/04 01:30:35;;;;;;;17.60;15.87;;;-1.80;99.90;;;;;;5008077;28;20513;-78
2022/04/04 01:33:02;;;;;;;18.53;16.73;;;-1.90;99.90;;;;;;5007041;28;20535;-79
2022/04/04 01:35:29;;;;;;;17.37;15.67;;;-1.80;99.90;;;;;;5005266;28;20499;-78
2022/04/04 01:37:56;;;;;;;17.17;15.63;;;-1.90;99.90;;;;;;5003537;28;20444;-78
2022/04/04 01:40:25;;;;;;;17.87;16.30;;;-1.90;99.90;;;;;;5004651;28;20429;-79
2022/04/04 01:42:55;;;;;;;17.97;16.27;;;-1.90;99.90;;;;;;5003777;28;20515;-79
2022/04/04 01:48:04;;;;;;;16.87;15.37;;;-2.10;99.90;;;;;;5000430;28;20467;-77
2022/04/04 01:50:30;;;;;;;16.10;14.50;;;-2.10;99.90;;;;;;5003982;28;20440;-80
2022/04/04 01:53:25;;;;;;;16.73;15.30;;;-2.10;99.90;;;;;;5004692;28;20455;-77
2022/04/04 01:55:46;;;;;;;17.33;15.57;;;-2.20;99.90;;;;;;4995250;28;20501;-77
2022/04/04 01:58:14;;;;;;;18.23;16.63;;;-2.20;99.90;;;;;;5000215;28;20778;-78
2022/04/04 02:00:41;;;;;;;17.97;16.50;;;-2.20;99.90;;;;;;5002720;28;20494;-78
2022/04/04 02:03:08;;;;;;;16.87;15.37;;;-2.20;99.90;;;;;;5002058;28;20860;-78
2022/04/04 02:05:35;;;;;;;17.23;15.53;;;-2.20;99.90;;;;;;5003538;28;20483;-77
2022/04/04 02:08:02;;;;;;;18.53;16.90;;;-2.20;99.90;;;;;;5002931;28;20502;-79
2022/04/04 02:10:29;;;;;;;17.43;15.73;;;-2.20;99.90;;;;;;5002557;28;20433;-79
2022/04/04 02:12:55;;;;;;;17.43;15.83;;;-2.20;99.90;;;;;;5007573;28;20522;-78
2022/04/04 02:15:24;;;;;;;17.77;16.27;;;-2.20;99.90;;;;;;5000697;28;20887;-78
2022/04/04 02:17:51;;;;;;;18.33;16.73;;;-2.20;99.90;;;;;;5003583;28;20436;-79
2022/04/04 02:20:20;;;;;;;17.23;15.73;;;-2.30;99.90;;;;;;5002420;28;20437;-78
2022/04/04 02:22:48;;;;;;;18.30;16.60;;;-2.30;99.90;;;;;;5001218;28;20907;-78
2022/04/04 02:25:15;;;;;;;18.33;16.60;;;-2.30;99.90;;;;;;5003072;28;20953;-77
2022/04/04 02:27:42;;;;;;;17.43;15.87;;;-2.40;99.90;;;;;;5006121;28;20436;-78
2022/04/04 02:30:10;;;;;;;18.93;17.03;;;-2.40;99.90;;;;;;5006209;28;20436;-79
2022/04/04 02:32:38;;;;;;;16.50;15.10;;;-2.40;99.90;;;;;;4992227;28;20456;-78
2022/04/04 02:35:07;;;;;;;17.77;16.17;;;-2.40;99.90;;;;;;5001106;28;20967;-78
2022/04/04 02:37:34;;;;;;;16.53;15.07;;;-2.50;99.90;;;;;;5004301;28;20504;-79
2022/04/04 02:40:01;;;;;;;17.50;15.77;;;-2.60;99.90;;;;;;5004245;28;20441;-80
2022/04/04 02:42:28;;;;;;;19.93;17.93;;;-2.60;99.90;;;;;;5005803;28;20993;-79
2022/04/04 02:44:55;;;;;;;17.57;16.03;;;-2.60;99.90;;;;;;5002221;28;20504;-80
2022/04/04 02:47:22;;;;;;;16.93;15.53;;;-2.60;99.90;;;;;;4994510;28;20843;-80
2022/04/04 02:49:50;;;;;;;16.87;15.27;;;-2.60;99.90;;;;;;4986508;28;20463;-79
2022/04/04 02:52:17;;;;;;;18.10;16.50;;;-2.60;99.90;;;;;;4992845;28;20891;-81
2022/04/04 02:54:44;;;;;;;18.00;16.40;;;-2.60;99.90;;;;;;5001070;28;20880;-80
2022/04/04 02:57:11;;;;;;;16.63;15.13;;;-2.60;99.90;;;;;;5002763;28;20475;-81
2022/04/04 02:59:38;;;;;;;17.43;15.77;;;-2.70;99.90;;;;;;4990524;28;20968;-79
2022/04/04 03:02:05;;;;;;;17.60;15.83;;;-2.70;99.90;;;;;;4997598;28;20256;-80
2022/04/04 03:04:32;;;;;;;17.70;16.07;;;-2.60;99.90;;;;;;4993283;28;20471;-81
2022/04/04 03:07:01;;;;;;;20.53;18.43;;;-2.70;99.90;;;;;;4990770;28;20436;-79
2022/04/04 03:09:28;;;;;;;18.10;16.17;;;-2.70;99.90;;;;;;4993229;28;20488;-79
2022/04/04 03:11:55;;;;;;;19.00;17.23;;;-2.80;99.90;;;;;;4986074;28;20445;-79
2022/04/04 03:14:21;;;;;;;18.60;16.63;;;-2.80;99.90;;;;;;4994144;28;20479;-79
2022/04/04 03:16:48;;;;;;;18.50;16.53;;;-2.80;99.90;;;;;;5003169;28;20456;-80
2022/04/04 03:19:15;;;;;;;18.17;16.37;;;-2.80;99.90;;;;;;5005646;28;20468;-80
2022/04/04 03:21:42;;;;;;;18.73;16.90;;;-2.80;99.90;;;;;;4994885;28;20451;-80
2022/04/04 03:24:10;;;;;;;17.97;16.23;;;-2.70;99.90;;;;;;5004227;28;20463;-81
2022/04/04 03:26:37;;;;;;;17.87;16.13;;;-2.80;99.90;;;;;;5004754;28;20441;-80
2022/04/04 03:29:04;;;;;;;18.48;16.77;;;-2.80;99.90;;;;;;5002275;28;20998;-78
2022/04/04 03:31:31;;;;;;;17.90;16.30;;;-2.80;99.90;;;;;;4993810;28;20976;-79
2022/04/04 03:33:58;;;;;;;18.77;17.17;;;-2.80;99.90;;;;;;5001783;28;20992;-78
2022/04/04 03:36:25;;;;;;;17.90;16.40;;;-2.80;99.90;;;;;;4997561;28;20452;-78
2022/04/04 03:38:51;;;;;;;18.90;15.97;;;-2.80;99.90;;;;;;5000566;28;20778;-79
2022/04/04 03:41:19;;;;;;;17.63;16.13;;;-2.90;99.90;;;;;;4999148;28;20474;-78
2022/04/04 03:43:46;;;;;;;17.80;16.20;;;-2.90;99.90;;;;;;4993773;28;20877;-79
2022/04/04 03:46:13;;;;;;;17.17;15.57;;;-2.90;99.90;;;;;;5000400;28;20431;-81
2022/04/04 03:48:40;;;;;;;18.50;16.70;;;-2.90;99.90;;;;;;5001139;28;20569;-78
2022/04/04 03:51:07;;;;;;;18.50;16.70;;;-2.90;99.90;;;;;;5004285;28;20444;-78
2022/04/04 03:53:33;;;;;;;17.83;16.10;;;-2.90;99.90;;;;;;5000048;28;20590;-77
2022/04/04 03:56:00;;;;;;;18.03;16.30;;;-3.00;99.90;;;;;;5001341;28;20472;-77
2022/04/04 03:58:29;;;;;;;17.30;15.90;;;-3.00;99.90;;;;;;5001880;28;20501;-78
2022/04/04 04:00:56;;;;;;;18.90;17.30;;;-3.00;99.90;;;;;;4995257;28;20439;-78
2022/04/04 04:03:22;;;;;;;17.97;16.43;;;-3.10;99.90;;;;;;5002824;28;20527;-78
2022/04/04 04:05:49;;;;;;;15.63;14.33;;;-3.10;99.90;;;;;;4999807;28;20679;-78
2022/04/04 04:08:16;;;;;;;16.47;15.07;;;-3.10;99.90;;;;;;4996464;28;20933;-79
2022/04/04 04:10:43;;;;;;;16.37;14.87;;;-3.10;99.90;;;;;;5004485;28;21004;-79
2022/04/04 04:13:09;;;;;;;17.10;15.53;;;-3.10;99.90;;;;;;4998863;28;20499;-77
2022/04/04 04:15:38;;;;;;;17.43;15.83;;;-3.10;99.90;;;;;;4999985;28;20523;-79
2022/04/04 04:18:05;;;;;;;17.77;16.17;;;-3.10;99.90;;;;;;5000971;28;20428;-78
2022/04/04 04:20:34;;;;;;;18.00;16.30;;;-3.10;99.90;;;;;;4997855;28;20456;-78
2022/04/04 04:23:03;;;;;;;17.50;15.87;;;-3.10;99.90;;;;;;5005745;28;20451;-78
2022/04/04 04:25:32;;;;;;;18.47;16.73;;;-3.10;99.90;;;;;;5000407;28;20455;-77
2022/04/04 04:28:01;;;;;;;17.00;15.30;;;-3.00;99.90;;;;;;5005336;28;20444;-78
2022/04/04 04:30:28;;;;;;;16.70;15.03;;;-3.00;99.90;;;;;;5000711;28;20485;-78
2022/04/04 04:32:56;;;;;;;16.80;15.07;;;-3.10;99.90;;;;;;5004843;28;20460;-78
2022/04/04 04:35:24;;;;;;;16.57;14.90;;;-3.10;99.90;;;;;;5003359;28;20518;-78
2022/04/04 04:37:51;;;;;;;17.10;15.50;;;-3.10;99.90;;;;;;5003917;28;20446;-78
2022/04/04 04:40:19;;;;;;;17.83;16.07;;;-3.10;99.90;;;;;;5001019;28;20437;-79
2022/04/04 04:42:49;;;;;;;18.03;16.33;;;-3.10;99.90;;;;;;5003671;28;20854;-78
2022/04/04 04:45:15;;;;;;;19.97;17.63;;;-3.00;99.90;;;;;;5003037;28;20479;-78
2022/04/04 04:47:43;;;;;;;19.90;17.80;;;-3.00;99.90;;;;;;5004437;28;20481;-78
2022/04/04 04:50:12;;;;;;;21.53;18.73;;;-3.00;99.90;;;;;;5001144;28;20482;-78
2022/04/04 04:52:39;;;;;;;26.10;19.97;;;-3.00;99.90;;;;;;5000679;28;20437;-78
2022/04/04 04:55:07;;;;;;;21.00;18.80;;;-3.00;99.90;;;;;;5006652;28;20470;-78
2022/04/04 04:57:34;;;;;;;23.43;19.47;;;-3.00;99.90;;;;;;5004484;28;20436;-78
2022/04/04 05:00:03;;;;;;;20.13;18.03;;;-2.90;99.90;;;;;;5014842;28;20513;-78
2022/04/04 05:02:30;;;;;;;19.97;17.63;;;-2.90;99.90;;;;;;5005959;28;20458;-80
2022/04/04 05:04:57;;;;;;;18.17;16.57;;;-2.90;99.90;;;;;;5015965;28;20445;-78
2022/04/04 05:07:25;;;;;;;17.93;16.23;;;-2.80;99.90;;;;;;5009269;28;20454;-79
2022/04/04 05:09:52;;;;;;;18.70;16.83;;;-2.80;99.90;;;;;;5010909;28;20499;-78
2022/04/04 05:12:19;;;;;;;17.80;16.03;;;-2.80;99.90;;;;;;4996962;28;20949;-79
2022/04/04 05:14:47;;;;;;;17.93;16.23;;;-2.80;99.90;;;;;;5001349;28;20475;-78
2022/04/04 05:17:14;;;;;;;17.47;15.63;;;-2.80;99.90;;;;;;5004212;28;20451;-79
2022/04/04 05:19:40;;;;;;;18.80;16.70;;;-2.80;99.90;;;;;;5007494;28;20465;-78
2022/04/04 05:22:07;;;;;;;16.47;14.90;;;-2.70;99.90;;;;;;4995717;28;20540;-77
2022/04/04 05:24:36;;;;;;;17.33;15.63;;;-2.70;99.90;;;;;;5007124;28;20456;-79
2022/04/04 05:27:03;;;;;;;17.43;15.73;;;-2.60;99.90;;;;;;5005836;28;20486;-78
2022/04/04 05:29:30;;;;;;;16.80;15.40;;;-2.60;99.90;;;;;;5001190;28;20479;-78
2022/04/04 05:31:57;;;;;;;16.67;14.93;;;-2.60;99.90;;;;;;5002344;28;20459;-77
2022/04/04 05:34:26;;;;;;;17.63;16.00;;;-2.50;99.90;;;;;;5004202;28;20972;-77
2022/04/04 05:36:53;;;;;;;17.40;15.77;;;-2.50;99.90;;;;;;5003516;28;20437;-79
2022/04/04 05:39:20;;;;;;;15.87;14.57;;;-2.50;99.90;;;;;;4997496;28;20542;-78
2022/04/04 05:41:48;;;;;;;19.97;16.23;;;-2.40;99.90;;;;;;5002708;28;20436;-78
2022/04/04 05:44:17;;;;;;;16.40;14.80;;;-2.30;99.90;;;;;;5004886;28;20475;-78
2022/04/04 05:46:44;;;;;;;17.47;15.87;;;-2.10;99.90;;;;;;5004207;28;20733;-78
2022/04/04 05:49:11;;;;;;;16.97;15.37;;;-1.90;99.90;;;;;;5001120;28;20546;-78
2022/04/04 05:51:37;;;;;;;17.87;16.27;;;-1.60;99.90;;;;;;4999156;28;20436;-78
2022/04/04 05:54:05;;;;;;;17.33;15.73;;;-1.40;99.90;;;;;;5006288;28;20514;-78
2022/04/04 05:56:32;;;;;;;17.67;15.97;;;-1.30;99.90;;;;;;5013238;28;20502;-79
2022/04/04 05:59:01;;;;;;;17.97;16.23;;;-1.10;99.90;;;;;;5006702;28;20428;-78
2022/04/04 06:01:27;;;;;;;16.87;15.17;;;-0.90;99.90;;;;;;5006575;28;20543;-78
2022/04/04 06:03:54;;;;;;;16.67;15.17;;;-0.70;99.90;;;;;;5000346;28;20460;-76
2022/04/04 06:06:21;;;;;;;16.40;14.90;;;-0.60;99.90;;;;;;4997992;28;20441;-78
2022/04/04 06:08:48;;;;;;;16.27;14.47;;;-0.50;99.90;;;;;;5004651;28;20510;-78
2022/04/04 06:11:14;;;;;;;16.20;14.80;;;-0.40;99.90;;;;;;4997920;28;20441;-79
2022/04/04 06:13:42;;;;;;;16.50;15.00;;;-0.30;99.90;;;;;;5008538;28;20567;-78
2022/04/04 06:16:10;;;;;;;15.90;14.60;;;-0.30;99.90;;;;;;5002747;28;20435;-78
2022/04/04 06:18:37;;;;;;;17.10;15.50;;;-0.30;99.90;;;;;;5000804;28;20436;-77
2022/04/04 06:21:04;;;;;;;15.27;13.87;;;0.00;99.90;;;;;;4995780;28;21022;-77
2022/04/04 06:23:33;;;;;;;14.53;13.40;;;0.20;99.90;;;;;;4999456;28;20460;-78
2022/04/04 06:26:01;;;;;;;16.43;14.97;;;0.40;99.90;;;;;;5005914;28;20440;-78
2022/04/04 06:28:30;;;;;;;16.00;14.53;;;0.60;99.90;;;;;;5006563;28;20436;-78
2022/04/04 06:30:58;;;;;;;16.10;14.80;;;0.70;99.90;;;;;;5012906;28;20467;-77
2022/04/04 06:33:27;;;;;;;16.00;14.60;;;0.80;99.90;;;;;;5014201;28;20447;-77
2022/04/04 06:35:55;;;;;;;16.47;15.10;;;0.70;99.90;;;;;;5013333;28;20862;-78
2022/04/04 06:38:22;;;;;;;16.70;15.07;;;0.80;99.90;;;;;;5004655;28;20490;-78
2022/04/04 06:40:51;;;;;;;16.17;14.77;;;1.00;99.90;;;;;;4997635;28;20437;-79
2022/04/04 06:43:18;;;;;;;16.17;14.67;;;1.10;99.90;;;;;;5014274;23;20510;-76
2022/04/04 06:45:46;;;;;;;16.03;14.73;;;1.20;99.90;;;;;;4983842;28;20446;-76
2022/04/04 06:48:13;;;;;;;16.40;14.80;;;1.20;99.90;;;;;;4980060;28;20510;-76
2022/04/04 06:50:42;;;;;;;15.83;14.50;;;1.40;99.90;;;;;;4982272;28;20552;-77
2022/04/04 06:53:09;;;;;;;16.00;14.70;;;1.60;99.90;;;;;;4978361;28;20472;-77
2022/04/04 06:55:37;;;;;;;15.50;14.20;;;1.70;99.90;;;;;;4934688;29;20453;-77
2022/04/04 06:58:04;;;;;;;16.10;14.70;;;1.90;99.90;;;;;;4964723;28;20437;-76
2022/04/04 07:00:31;;;;;;;16.23;14.83;;;2.00;99.90;;;;;;4966032;28;20444;-76
2022/04/04 07:02:59;;;;;;;15.53;14.33;;;2.20;99.90;;;;;;4965488;28;20447;-76
2022/04/04 07:05:26;;;;;;;16.37;14.80;;;2.30;99.90;;;;;;4965787;28;20462;-76
2022/04/04 07:07:54;;;;;;;16.33;14.83;;;2.60;99.90;;;;;;4966797;28;20441;-76
2022/04/04 07:10:21;;;;;;;14.13;12.87;;;2.70;99.90;;;;;;4968875;28;20844;-76
2022/04/04 07:12:48;;;;;;;13.67;12.57;;;2.90;99.90;;;;;;4961338;28;20787;-76
2022/04/04 07:15:15;;;;;;;14.40;13.20;;;3.00;99.90;;;;;;4966017;28;20465;-76
2022/04/04 07:17:43;;;;;;;10.47;9.47;;;3.20;99.90;;;;;;4959175;28;20468;-77
2022/04/04 07:20:12;;;;;;;13.73;12.43;;;3.50;99.90;;;;;;4958290;28;20795;-76
2022/04/04 07:22:40;;;;;;;14.13;11.90;;;3.70;99.90;;;;;;4950931;28;20196;-76
2022/04/04 07:25:10;;;;;;;11.90;9.37;;;4.00;99.90;;;;;;4959674;28;20499;-77
2022/04/04 07:27:39;;;;;;;15.50;14.30;;;4.10;99.90;;;;;;4971801;28;20198;-76
2022/04/04 07:30:08;;;;;;;15.50;14.20;;;4.50;99.90;;;;;;4963703;28;20305;-77
2022/04/04 07:32:35;;;;;;;14.57;13.20;;;5.00;99.90;;;;;;4961775;28;20690;-77
2022/04/04 07:35:03;;;;;;;9.63;8.73;;;5.30;99.90;;;;;;4966288;28;20288;-77
2022/04/04 07:37:29;;;;;;;11.03;9.40;;;5.60;99.90;;;;;;4965352;28;20207;-77
2022/04/04 07:39:56;;;;;;;11.93;8.50;;;5.80;99.90;;;;;;4965132;28;20199;-76
2022/04/04 07:42:25;;;;;;;13.43;12.17;;;6.10;99.90;;;;;;4965779;28;20211;-76
2022/04/04 07:44:52;;;;;;;8.80;7.33;;;6.10;99.90;;;;;;4973060;28;20219;-77
2022/04/04 07:47:19;;;;;;;15.07;13.57;;;6.30;99.90;;;;;;4973559;28;20673;-78
2022/04/04 07:49:46;;;;;;;11.47;7.90;;;6.70;99.90;;;;;;4972852;28;20218;-77
2022/04/04 07:52:13;;;;;;;9.53;7.33;;;7.20;99.90;;;;;;4969618;28;20201;-77
2022/04/04 07:54:40;;;;;;;10.90;9.10;;;7.60;99.90;;;;;;4967711;28;20232;-76
2022/04/04 07:57:07;;;;;;;12.90;11.60;;;7.90;99.90;;;;;;4962310;28;20211;-76
2022/04/04 07:59:36;;;;;;;10.90;9.90;;;7.90;99.90;;;;;;4972375;28;20199;-79
2022/04/04 08:02:03;;;;;;;13.90;12.60;;;8.10;99.90;;;;;;4962786;28;20206;-77
2022/04/04 08:04:30;;;;;;;12.23;11.03;;;8.30;99.90;;;;;;4961780;28;20232;-76
2022/04/04 08:06:56;;;;;;;11.43;9.40;;;8.60;99.90;;;;;;4964522;28;20203;-79
2022/04/04 08:09:23;;;;;;;11.67;10.53;;;8.60;99.90;;;;;;4964025;28;20286;-78
2022/04/04 08:11:52;;;;;;;9.47;8.07;;;8.70;99.90;;;;;;4967473;28;20207;-77
2022/04/04 08:14:19;;;;;;;11.30;10.10;;;8.80;99.90;;;;;;4971845;28;20285;-77
2022/04/04 08:16:47;;;;;;;10.27;8.87;;;8.80;99.90;;;;;;4962537;28;20664;-79
2022/04/04 08:19:15;;;;;;;12.90;11.80;;;8.70;99.90;;;;;;4961497;28;20261;-77
2022/04/04 08:21:42;;;;;;;11.33;10.13;;;9.00;99.90;;;;;;4968049;28;20544;-78
2022/04/04 08:24:09;;;;;;;10.00;8.93;;;9.20;99.90;;;;;;4969235;28;20234;-77
2022/04/04 08:26:38;;;;;;;11.27;10.27;;;9.40;99.90;;;;;;4956438;28;20194;-79
2022/04/04 08:29:05;;;;;;;11.30;10.30;;;9.20;99.90;;;;;;4970291;28;20608;-78
2022/04/04 08:31:31;;;;;;;10.87;8.63;;;9.30;99.90;;;;;;4957374;28;20230;-76
2022/04/04 08:34:00;;;;;;;12.17;11.07;;;9.50;99.90;;;;;;4968755;28;20611;-77
2022/04/04 08:36:26;;;;;;;11.33;10.33;;;9.60;99.90;;;;;;4973139;28;20202;-77
2022/04/04 08:38:53;;;;;;;9.63;8.00;;;9.50;99.90;;;;;;4968935;28;20206;-77
2022/04/04 08:41:22;;;;;;;11.17;10.07;;;9.40;99.90;;;;;;4967653;28;20202;-76
2022/04/04 08:43:50;;;;;;;11.53;10.43;;;9.60;99.90;;;;;;4967656;28;20648;-75
2022/04/04 08:46:17;;;;;;;9.80;7.33;;;9.80;99.90;;;;;;4960498;28;20211;-76
2022/04/04 08:48:44;;;;;;;10.40;9.50;;;10.00;99.90;;;;;;4968588;28;20206;-78
2022/04/04 08:51:14;;;;;;;11.57;10.47;;;10.10;99.90;;;;;;4968779;28;20213;-77
2022/04/04 08:53:41;;;;;;;10.50;9.40;;;10.30;99.90;;;;;;4959805;28;20228;-77
2022/04/04 08:56:09;;;;;;;10.53;9.53;;;10.30;99.90;;;;;;4967136;28;20222;-77
2022/04/04 08:58:37;;;;;;;11.40;10.47;;;10.20;99.90;;;;;;4958233;28;20244;-77
2022/04/04 09:01:04;;;;;;;10.73;9.87;;;10.30;99.90;;;;;;4966168;28;20523;-77
2022/04/04 09:03:31;;;;;;;10.20;9.20;;;10.80;99.90;;;;;;4963297;28;20254;-76
2022/04/04 09:06:00;;;;;;;9.00;8.20;;;10.70;99.90;;;;;;4966008;28;20250;-77
2022/04/04 09:08:29;;;;;;;7.87;7.07;;;10.60;99.90;;;;;;4970015;28;20215;-77
2022/04/04 09:11:00;;;;;;;7.17;6.47;;;10.90;99.90;;;;;;4963062;28;20699;-77
2022/04/04 09:13:29;;;;;;;6.40;5.40;;;10.90;99.90;;;;;;4958896;28;20230;-77
2022/04/04 09:15:58;;;;;;;10.00;7.77;;;11.00;99.90;;;;;;4966296;28;20206;-78
2022/04/04 09:18:43;;;;;;;8.90;8.10;;;10.70;99.90;;;;;;4966825;28;20294;-76
2022/04/04 09:21:12;;;;;;;10.10;9.20;;;10.70;99.90;;;;;;4969371;28;20189;-76
2022/04/04 09:23:55;;;;;;;8.67;7.83;;;10.90;99.90;;;;;;4950511;28;20225;-77
2022/04/04 09:26:31;;;;;;;8.50;7.07;;;10.90;99.90;;;;;;4962847;28;20291;-77
2022/04/04 09:28:59;;;;;;;7.53;6.80;;;10.70;99.90;;;;;;4966051;28;20211;-76
2022/04/04 09:31:26;;;;;;;6.87;6.17;;;10.60;99.90;;;;;;4967702;28;20221;-77
2022/04/04 09:33:57;;;;;;;6.77;6.07;;;10.60;99.90;;;;;;4959253;28;20218;-78
2022/04/04 09:36:25;;;;;;;8.33;6.17;;;10.70;99.90;;;;;;4972905;28;20217;-78
2022/04/04 09:39:03;;;;;;;4.77;4.37;;;10.90;99.90;;;;;;4967243;28;20222;-78
2022/04/04 09:41:30;;;;;;;9.67;8.87;;;11.40;99.90;;;;;;4966133;28;20199;-77
2022/04/04 09:43:59;;;;;;;7.90;7.20;;;11.10;99.90;;;;;;4964208;28;20723;-78
2022/04/04 09:46:32;;;;;;;9.33;8.53;;;11.30;99.90;;;;;;4967737;28;20209;-79
2022/04/04 09:49:08;;;;;;;6.13;5.10;;;11.10;99.90;;;;;;4967581;28;20730;-77
2022/04/04 09:51:39;;;;;;;7.50;5.60;;;11.10;99.90;;;;;;4971242;28;20264;-77
2022/04/04 09:54:10;;;;;;;11.67;10.77;;;10.90;99.90;;;;;;4967480;28;20219;-80
2022/04/04 09:56:37;;;;;;;7.93;6.93;;;10.90;99.90;;;;;;4964785;28;20223;-80
2022/04/04 10:02:17;;;;;;;12.40;11.40;;;10.80;99.90;;;;;;4930135;29;20196;-78
2022/04/04 10:04:45;;;;;;;12.93;11.93;;;10.40;99.90;;;;;;4934971;29;20275;-79
2022/04/04 10:10:16;;;;;;;12.37;11.47;;;10.30;99.90;;;;;;4970913;28;20193;-77
2022/04/04 10:12:44;;;;;;;11.83;10.93;;;10.60;99.90;;;;;;4946448;28;20187;-78
2022/04/04 10:15:11;;;;;;;11.53;10.63;;;10.60;99.90;;;;;;4959159;28;20223;-77
2022/04/04 10:17:39;;;;;;;11.57;10.77;;;10.60;99.90;;;;;;4951938;28;20194;-78
2022/04/04 10:20:08;;;;;;;11.47;10.57;;;10.40;99.20;;;;;;4967412;28;20203;-77
2022/04/04 10:22:35;;;;;;;10.50;9.60;;;10.20;99.80;;;;;;4976262;28;20202;-79
2022/04/04 10:25:03;;;;;;;11.77;10.77;;;10.00;99.90;;;;;;4968084;28;20226;-79
2022/04/04 10:27:32;;;;;;;11.53;10.43;;;9.80;99.90;;;;;;4968703;28;20281;-79
2022/04/04 10:30:04;;;;;;;10.40;9.60;;;9.60;99.90;;;;;;4962633;28;20206;-79
2022/04/04 10:32:31;;;;;;;10.70;9.80;;;9.70;99.90;;;;;;4961434;28;21006;-78
2022/04/04 10:34:58;;;;;;;11.47;10.37;;;9.80;99.90;;;;;;4961810;28;20241;-76
2022/04/04 10:37:30;;;;;;;10.90;10.00;;;9.60;99.90;;;;;;4964630;28;20571;-79
2022/04/04 10:39:57;;;;;;;11.63;10.50;;;9.50;99.90;;;;;;4967894;28;20550;-79
2022/04/04 10:42:30;;;;;;;12.93;11.60;;;9.20;99.90;;;;;;4971558;28;20201;-77
2022/04/04 10:45:04;;;;;;;12.50;11.40;;;9.10;99.90;;;;;;4963784;28;20308;-79
2022/04/04 10:47:32;;;;;;;11.73;10.63;;;9.10;99.90;;;;;;4967997;28;20204;-79
2022/04/04 10:50:16;;;;;;;10.53;9.53;;;9.00;99.90;;;;;;4961986;28;20706;-79
2022/04/04 10:52:44;;;;;;;10.33;9.33;;;8.90;99.90;;;;;;4958416;28;20245;-78
2022/04/04 10:55:54;;;;;;;8.63;7.83;;;8.90;99.90;;;;;;4973993;28;20197;-77
2022/04/04 10:58:24;;;;;;;12.47;11.47;;;8.60;99.90;;;;;;4964615;28;20213;-78
2022/04/04 11:01:07;;;;;;;7.70;6.30;;;8.70;99.90;;;;;;4960246;28;20217;-77
2022/04/04 11:03:39;;;;;;;9.87;8.97;;;8.80;99.90;;;;;;4963362;28;20217;-77
2022/04/04 11:09:08;;;;;;;9.90;9.00;;;8.80;99.90;;;;;;4950276;28;20217;-77
2022/04/04 11:11:47;;;;;;;8.77;7.97;;;8.70;99.90;;;;;;4958808;28;20296;-76
2022/04/04 11:14:14;;;;;;;10.33;9.33;;;8.80;99.90;;;;;;4961718;28;20222;-76
2022/04/04 11:17:33;;;;;;;8.03;6.67;;;8.60;99.90;;;;;;4968320;28;20659;-76
2022/04/04 11:20:04;;;;;;;8.57;5.90;;;8.70;99.90;;;;;;4954154;28;20198;-76
2022/04/04 11:22:33;;;;;;;10.37;9.57;;;8.90;99.90;;;;;;4966377;28;20199;-76
2022/04/04 11:25:04;;;;;;;11.20;10.30;;;8.60;99.90;;;;;;4966563;28;20219;-76
2022/04/04 11:27:33;;;;;;;8.57;7.77;;;8.50;99.90;;;;;;4970114;28;20198;-76
2022/04/04 11:30:00;;;;;;;7.97;7.27;;;8.50;99.90;;;;;;4963225;28;20201;-76
2022/04/04 11:32:31;;;;;;;10.53;9.60;;;8.50;99.90;;;;;;4959703;28;20225;-76
2022/04/04 11:35:07;;;;;;;8.60;7.80;;;8.50;99.90;;;;;;4964620;28;20582;-76
2022/04/04 11:37:42;;;;;;;6.47;5.70;;;8.50;99.90;;;;;;4957763;28;20209;-76
2022/04/04 11:40:13;;;;;;;7.67;6.87;;;8.50;99.90;;;;;;4961167;28;20396;-76
2022/04/04 11:42:42;;;;;;;7.80;7.10;;;8.60;99.90;;;;;;4954886;28;20191;-76
2022/04/04 11:45:11;;;;;;;10.00;9.20;;;8.70;99.90;;;;;;4966914;28;20238;-76
2022/04/04 11:47:41;;;;;;;6.57;5.37;;;8.60;99.90;;;;;;4975130;28;20276;-76
2022/04/04 11:50:08;;;;;;;6.07;5.03;;;8.60;99.90;;;;;;4961350;28;20207;-76
2022/04/04 11:52:49;;;;;;;5.10;4.60;;;8.70;99.90;;;;;;4968586;28;20220;-76
2022/04/04 11:55:17;;;;;;;5.67;5.03;;;8.60;99.90;;;;;;4962181;28;20206;-76
2022/04/04 11:57:46;;;;;;;6.20;5.27;;;8.50;99.90;;;;;;4967647;28;20687;-76
2022/04/04 12:00:20;;;;;;;5.90;4.93;;;8.50;99.90;;;;;;4962662;28;20195;-76
2022/04/04 12:02:48;;;;;;;5.23;4.73;;;8.50;99.90;;;;;;4972964;28;20198;-76
2022/04/04 12:05:17;;;;;;;8.00;5.60;;;8.60;99.90;;;;;;4970559;28;20207;-77
2022/04/04 12:07:44;;;;;;;7.17;5.10;;;8.60;99.90;;;;;;4969953;28;20591;-76
2022/04/04 12:10:16;;;;;;;5.93;4.77;;;8.60;99.90;;;;;;4959571;28;20573;-76
2022/04/04 12:12:45;;;;;;;7.13;4.70;;;8.60;99.90;;;;;;4962319;28;20325;-76
2022/04/04 12:15:12;;;;;;;7.17;5.53;;;8.60;99.90;;;;;;4963081;28;20205;-76
2022/04/04 12:17:39;;;;;;;6.43;5.50;;;8.60;99.90;;;;;;4956149;28;20209;-76
2022/04/04 12:20:12;;;;;;;7.60;5.13;;;8.50;99.90;;;;;;4969748;28;20209;-77
2022/04/04 12:25:26;;;;;;;7.77;7.07;;;8.60;99.90;;;;;;4964401;28;20259;-78
2022/04/04 12:27:57;;;;;;;6.03;5.30;;;8.50;99.90;;;;;;4964174;28;20198;-81
2022/04/04 12:30:33;;;;;;;6.23;5.03;;;8.50;99.90;;;;;;4967755;28;20648;-77
2022/04/04 12:33:10;;;;;;;7.10;5.90;;;8.50;99.90;;;;;;4968588;28;20229;-80
2022/04/04 12:35:44;;;;;;;6.43;5.83;;;8.60;99.90;;;;;;4958414;28;20208;-77
2022/04/04 12:38:11;;;;;;;6.13;5.30;;;8.50;99.90;;;;;;4969227;28;20284;-78
2022/04/04 12:40:39;;;;;;;5.90;5.17;;;8.40;99.90;;;;;;4960551;28;20227;-77
2022/04/04 12:43:07;;;;;;;6.40;5.33;;;8.40;99.90;;;;;;4967566;28;20198;-78
2022/04/04 12:45:35;;;;;;;6.10;5.20;;;8.40;99.90;;;;;;4967921;28;20194;-77
2022/04/04 12:48:08;;;;;;;6.20;5.10;;;8.50;99.90;;;;;;4962706;28;20268;-76
2022/04/04 12:50:40;;;;;;;6.33;5.07;;;8.50;99.90;;;;;;4967016;28;20766;-77
2022/04/04 12:53:10;;;;;;;6.97;6.27;;;8.50;99.90;;;;;;4967084;28;20285;-78
2022/04/04 12:55:39;;;;;;;14.47;13.30;;;8.50;99.90;;;;;;4974422;28;20247;-77
2022/04/04 12:58:17;;;;;;;9.10;8.40;;;8.50;99.90;;;;;;4967963;28;20226;-77